Time;durP1;ratioP1;P1;durP2;ratioP2;P2;SDS_P1;SDS_P2;PMS_P1;PMS_P2;Temp;Humidity;BMP_temperature;BMP_pressure;BME280_temperature;BME280_humidity;BME280_pressure;Samples;Min_cycle;Max_cycle;Signal;HPM_P1;HPM_P2
2023/03/23 00:01:55;;;;;;;1.83;1.00;;;;;;;;;;5128655;27;20039;-64
2023/03/23 00:04:22;;;;;;;1.70;1.05;;;;;;;;;;5131317;27;20050;-65
2023/03/23 00:06:49;;;;;;;1.73;1.60;;;;;;;;;;5107799;27;20447;-66
2023/03/23 00:09:15;;;;;;;2.08;1.95;;;;;;;;;;5125579;27;20056;-65
2023/03/23 00:11:42;;;;;;;2.03;1.88;;;;;;;;;;5127211;27;20519;-65
2023/03/23 00:14:12;;;;;;;3.58;2.47;;;;;;;;;;5131933;27;20039;-65
2023/03/23 00:16:40;;;;;;;2.53;2.25;;;;;;;;;;5124902;27;20039;-65
2023/03/23 00:19:08;;;;;;;3.70;3.40;;;;;;;;;;5103833;27;20043;-66
2023/03/23 00:21:35;;;;;;;3.53;2.92;;;;;;;;;;5128412;27;20120;-65
2023/03/23 00:24:06;;;;;;;3.03;2.83;;;;;;;;;;5130878;27;20095;-65
2023/03/23 00:26:33;;;;;;;3.92;3.40;;;;;;;;;;5131795;27;20698;-65
2023/03/23 00:29:00;;;;;;;2.63;2.42;;;;;;;;;;5134395;27;20424;-65
2023/03/23 00:31:31;;;;;;;3.10;2.90;;;;;;;;;;5134250;27;20537;-65
2023/03/23 00:33:58;;;;;;;4.10;2.58;;;;;;;;;;5135256;27;20059;-65
2023/03/23 00:36:24;;;;;;;2.50;2.30;;;;;;;;;;5135657;27;20051;-65
2023/03/23 00:38:50;;;;;;;2.88;2.50;;;;;;;;;;5133036;27;20043;-65
2023/03/23 00:41:16;;;;;;;2.63;2.42;;;;;;;;;;5133926;27;20043;-65
2023/03/23 00:43:42;;;;;;;4.40;3.08;;;;;;;;;;5136185;27;20050;-66
2023/03/23 00:46:09;;;;;;;4.07;3.78;;;;;;;;;;5133842;27;20078;-65
2023/03/23 00:48:36;;;;;;;4.05;3.75;;;;;;;;;;5135930;27;20133;-65
2023/03/23 00:51:10;;;;;;;6.32;5.50;;;;;;;;;;5135008;27;20136;-65
2023/03/23 00:53:36;;;;;;;5.80;5.35;;;;;;;;;;5133478;27;20047;-65
2023/03/23 00:56:02;;;;;;;6.35;5.82;;;;;;;;;;5133190;27;20092;-65
2023/03/23 00:58:28;;;;;;;8.35;7.55;;;;;;;;;;5134764;27;20123;-65
2023/03/23 01:00:54;;;;;;;8.35;7.50;;;;;;;;;;5137582;27;20054;-65
2023/03/23 01:03:20;;;;;;;9.27;7.70;;;;;;;;;;5136940;27;20054;-65
2023/03/23 01:05:46;;;;;;;10.60;7.90;;;;;;;;;;5131926;27;20060;-65
2023/03/23 01:08:13;;;;;;;7.95;6.90;;;;;;;;;;5133468;27;20058;-65
2023/03/23 01:10:40;;;;;;;7.25;6.65;;;;;;;;;;5134498;27;20126;-66
2023/03/23 01:13:07;;;;;;;6.70;6.00;;;;;;;;;;5133694;27;20070;-65
2023/03/23 01:15:33;;;;;;;4.90;4.50;;;;;;;;;;5133387;27;20047;-66
2023/03/23 01:18:00;;;;;;;6.75;4.68;;;;;;;;;;5133471;27;20054;-65
2023/03/23 01:20:31;;;;;;;6.93;4.20;;;;;;;;;;5134736;27;20039;-65
2023/03/23 01:23:00;;;;;;;4.38;3.97;;;;;;;;;;5134316;27;20054;-65
2023/03/23 01:25:26;;;;;;;2.90;2.70;;;;;;;;;;5135188;27;20047;-64
2023/03/23 01:27:52;;;;;;;4.97;3.05;;;;;;;;;;5133249;27;20034;-64
2023/03/23 01:30:18;;;;;;;3.85;2.85;;;;;;;;;;5134273;27;20462;-64
2023/03/23 01:32:44;;;;;;;4.95;2.70;;;;;;;;;;5135636;27;20039;-65
2023/03/23 01:35:12;;;;;;;3.25;2.40;;;;;;;;;;5132293;27;20086;-65
2023/03/23 01:37:38;;;;;;;2.80;2.60;;;;;;;;;;5135425;27;20046;-65
2023/03/23 01:40:05;;;;;;;2.55;2.35;;;;;;;;;;5133529;27;20130;-64
2023/03/23 01:42:33;;;;;;;3.40;2.70;;;;;;;;;;5134060;27;20042;-65
2023/03/23 01:45:18;;;;;;;4.88;3.55;;;;;;;;;;5135013;27;20047;-65
2023/03/23 01:47:44;;;;;;;4.45;3.47;;;;;;;;;;5136746;27;20081;-65
2023/03/23 01:50:10;;;;;;;4.70;3.58;;;;;;;;;;5136585;27;20039;-65
2023/03/23 01:52:36;;;;;;;5.15;4.05;;;;;;;;;;5136519;27;20172;-65
2023/03/23 01:55:03;;;;;;;7.60;4.75;;;;;;;;;;5134482;27;20054;-65
2023/03/23 01:57:29;;;;;;;5.22;4.75;;;;;;;;;;5136941;27;20043;-65
2023/03/23 01:59:57;;;;;;;8.15;5.40;;;;;;;;;;5135826;27;20046;-65
2023/03/23 02:02:25;;;;;;;6.65;5.47;;;;;;;;;;5136299;27;20517;-65
2023/03/23 02:04:51;;;;;;;6.78;5.78;;;;;;;;;;5137745;27;20070;-65
2023/03/23 02:07:18;;;;;;;6.95;6.07;;;;;;;;;;5133512;27;20042;-65
2023/03/23 02:09:44;;;;;;;5.35;4.85;;;;;;;;;;5133848;27;20082;-65
2023/03/23 02:12:10;;;;;;;6.68;5.07;;;;;;;;;;5137173;27;20074;-65
2023/03/23 02:14:36;;;;;;;6.00;4.50;;;;;;;;;;5135042;27;20517;-65
2023/03/23 02:17:10;;;;;;;8.30;5.68;;;;;;;;;;5136531;27;20087;-65
2023/03/23 02:19:54;;;;;;;5.63;4.78;;;;;;;;;;5137147;27;20091;-65
2023/03/23 02:22:40;;;;;;;6.57;4.78;;;;;;;;;;5134042;27;21518;-66
2023/03/23 02:25:16;;;;;;;5.72;4.70;;;;;;;;;;5132053;27;20043;-65
2023/03/23 02:27:48;;;;;;;5.43;4.85;;;;;;;;;;5115738;27;20055;-66
2023/03/23 02:30:20;;;;;;;5.60;5.05;;;;;;;;;;5132468;27;20151;-65
2023/03/23 02:32:55;;;;;;;6.50;4.80;;;;;;;;;;5133348;27;20058;-64
2023/03/23 02:35:29;;;;;;;5.82;4.65;;;;;;;;;;5133655;27;20505;-65
2023/03/23 02:37:58;;;;;;;7.00;4.68;;;;;;;;;;5134184;27;20038;-65
2023/03/23 02:40:37;;;;;;;5.95;4.25;;;;;;;;;;5133704;27;20035;-66
2023/03/23 02:43:04;;;;;;;6.80;4.70;;;;;;;;;;5135926;27;20098;-65
2023/03/23 02:45:33;;;;;;;5.38;4.65;;;;;;;;;;5136472;27;20038;-66
2023/03/23 02:47:59;;;;;;;5.38;4.60;;;;;;;;;;5135711;27;20107;-65
2023/03/23 02:50:26;;;;;;;5.75;4.30;;;;;;;;;;5133407;27;20038;-65
2023/03/23 02:52:53;;;;;;;5.90;4.28;;;;;;;;;;5133238;27;20031;-64
2023/03/23 02:55:20;;;;;;;4.50;4.10;;;;;;;;;;5137016;27;20637;-65
2023/03/23 02:57:47;;;;;;;4.55;3.67;;;;;;;;;;5136636;27;20121;-65
2023/03/23 03:00:15;;;;;;;5.85;3.88;;;;;;;;;;5137221;27;20043;-66
2023/03/23 03:02:43;;;;;;;5.85;3.70;;;;;;;;;;5136272;27;20047;-65
2023/03/23 03:05:12;;;;;;;6.55;5.15;;;;;;;;;;5135312;27;20039;-65
2023/03/23 03:07:48;;;;;;;6.57;4.22;;;;;;;;;;5133169;27;20051;-65
2023/03/23 03:10:21;;;;;;;5.45;4.30;;;;;;;;;;5137870;27;20089;-65
2023/03/23 03:12:50;;;;;;;6.43;4.18;;;;;;;;;;5133837;27;20039;-64
2023/03/23 03:15:42;;;;;;;6.50;4.47;;;;;;;;;;5133134;27;20418;-65
2023/03/23 03:18:08;;;;;;;7.90;3.70;;;;;;;;;;5128556;27;20093;-66
2023/03/23 03:20:36;;;;;;;3.95;3.30;;;;;;;;;;5133901;27;20082;-65
2023/03/23 03:23:02;;;;;;;5.85;4.43;;;;;;;;;;5113883;27;20043;-65
2023/03/23 03:25:29;;;;;;;7.25;3.83;;;;;;;;;;5133738;27;20095;-65
2023/03/23 03:27:56;;;;;;;6.53;3.70;;;;;;;;;;5133522;27;20035;-65
2023/03/23 03:30:26;;;;;;;5.82;3.95;;;;;;;;;;5133284;27;20043;-65
2023/03/23 03:32:53;;;;;;;9.35;4.55;;;;;;;;;;5134291;27;20070;-65
2023/03/23 03:35:20;;;;;;;4.90;3.90;;;;;;;;;;5131345;27;20050;-65
2023/03/23 03:37:46;;;;;;;6.70;4.07;;;;;;;;;;5134187;27;20137;-65
2023/03/23 03:40:15;;;;;;;4.03;3.60;;;;;;;;;;5132452;27;20122;-65
2023/03/23 03:42:42;;;;;;;10.07;4.35;;;;;;;;;;5115125;27;20051;-65
2023/03/23 03:45:09;;;;;;;6.78;3.95;;;;;;;;;;5132132;27;20039;-65
2023/03/23 03:47:35;;;;;;;5.82;3.72;;;;;;;;;;5132933;27;20070;-65
2023/03/23 03:50:01;;;;;;;3.90;3.45;;;;;;;;;;5132401;27;20051;-65
2023/03/23 03:52:28;;;;;;;5.70;3.70;;;;;;;;;;5133305;27;20114;-66
2023/03/23 03:54:55;;;;;;;7.35;3.92;;;;;;;;;;5133396;27;20042;-65
2023/03/23 03:57:21;;;;;;;9.52;3.72;;;;;;;;;;5135199;27;20133;-65
2023/03/23 03:59:47;;;;;;;5.78;2.53;;;;;;;;;;5137749;27;20043;-65
2023/03/23 04:02:16;;;;;;;3.95;2.80;;;;;;;;;;5136339;27;20035;-66
2023/03/23 04:04:43;;;;;;;5.20;3.05;;;;;;;;;;5138300;27;20119;-65
2023/03/23 04:07:10;;;;;;;4.80;3.88;;;;;;;;;;5136030;27;20075;-65
2023/03/23 04:09:38;;;;;;;4.90;3.08;;;;;;;;;;5136042;27;20137;-65
2023/03/23 04:12:04;;;;;;;7.95;3.53;;;;;;;;;;5136216;27;20454;-65
2023/03/23 04:14:30;;;;;;;7.55;3.30;;;;;;;;;;5135886;27;20043;-65
2023/03/23 04:16:56;;;;;;;5.55;3.35;;;;;;;;;;5134425;27;20443;-65
2023/03/23 04:19:23;;;;;;;5.90;3.30;;;;;;;;;;5137233;27;20050;-65
2023/03/23 04:21:49;;;;;;;6.07;2.83;;;;;;;;;;5137412;27;20043;-66
2023/03/23 04:24:16;;;;;;;5.95;2.50;;;;;;;;;;5135082;27;20104;-65
2023/03/23 04:26:42;;;;;;;3.65;2.53;;;;;;;;;;5139243;27;20043;-65
2023/03/23 04:29:08;;;;;;;6.20;2.47;;;;;;;;;;5135812;27;20108;-65
2023/03/23 04:31:34;;;;;;;7.30;2.42;;;;;;;;;;5137043;27;20043;-65
2023/03/23 04:34:01;;;;;;;5.07;2.58;;;;;;;;;;5136376;27;20030;-65
2023/03/23 04:36:28;;;;;;;5.90;2.28;;;;;;;;;;5136133;27;20043;-65
2023/03/23 04:38:55;;;;;;;4.22;2.00;;;;;;;;;;5137751;27;20077;-65
2023/03/23 04:41:21;;;;;;;3.63;1.92;;;;;;;;;;5136717;27;20051;-65
2023/03/23 04:43:53;;;;;;;4.30;1.95;;;;;;;;;;5136581;27;20058;-65
2023/03/23 04:46:19;;;;;;;4.10;1.58;;;;;;;;;;5136214;27;20051;-65
2023/03/23 04:48:45;;;;;;;4.07;1.85;;;;;;;;;;5137079;27;20046;-65
2023/03/23 04:51:14;;;;;;;3.45;2.83;;;;;;;;;;5134811;27;20624;-65
2023/03/23 04:53:40;;;;;;;4.95;2.40;;;;;;;;;;5137789;27;20489;-65
2023/03/23 04:56:06;;;;;;;6.00;2.20;;;;;;;;;;5135551;27;20039;-65
2023/03/23 04:58:33;;;;;;;4.00;1.80;;;;;;;;;;5117789;27;20495;-66
2023/03/23 05:01:04;;;;;;;6.65;2.05;;;;;;;;;;5136841;27;20035;-65
2023/03/23 05:03:30;;;;;;;6.40;2.05;;;;;;;;;;5136559;27;20597;-65
2023/03/23 05:05:56;;;;;;;7.20;1.58;;;;;;;;;;5136177;27;20099;-65
2023/03/23 05:08:23;;;;;;;7.75;1.90;;;;;;;;;;5134124;27;20058;-65
2023/03/23 05:10:56;;;;;;;3.17;1.40;;;;;;;;;;5135224;27;20070;-66
2023/03/23 05:13:22;;;;;;;5.55;1.90;;;;;;;;;;5133909;27;20074;-65
2023/03/23 05:15:49;;;;;;;7.43;2.20;;;;;;;;;;5136651;27;20046;-65
2023/03/23 05:18:15;;;;;;;4.90;2.05;;;;;;;;;;5135356;27;20043;-65
2023/03/23 05:20:42;;;;;;;7.75;2.15;;;;;;;;;;5137168;27;20523;-65
2023/03/23 05:23:08;;;;;;;4.28;2.03;;;;;;;;;;5133475;27;20038;-66
2023/03/23 05:25:39;;;;;;;6.22;2.03;;;;;;;;;;5134693;27;20050;-65
2023/03/23 05:28:05;;;;;;;7.13;2.38;;;;;;;;;;5138624;27;20651;-65
2023/03/23 05:30:31;;;;;;;7.68;2.65;;;;;;;;;;5136800;27;20094;-65
2023/03/23 05:32:57;;;;;;;7.50;2.80;;;;;;;;;;5136569;27;20073;-65
2023/03/23 05:35:23;;;;;;;11.25;3.55;;;;;;;;;;5138064;27;20454;-66
2023/03/23 05:37:53;;;;;;;7.90;3.00;;;;;;;;;;5137375;27;20035;-65
2023/03/23 05:40:19;;;;;;;9.75;3.20;;;;;;;;;;5137600;27;20055;-64
2023/03/23 05:42:46;;;;;;;12.10;3.15;;;;;;;;;;5136702;27;20538;-65
2023/03/23 05:45:12;;;;;;;11.90;3.25;;;;;;;;;;5137565;27;20046;-65
2023/03/23 05:47:39;;;;;;;17.58;3.33;;;;;;;;;;5135558;27;20099;-66
2023/03/23 05:50:06;;;;;;;11.55;2.90;;;;;;;;;;5118405;27;20039;-65
2023/03/23 05:52:35;;;;;;;12.70;3.72;;;;;;;;;;5137792;27;20051;-65
2023/03/23 05:55:01;;;;;;;10.25;2.92;;;;;;;;;;5133976;27;20043;-66
2023/03/23 05:57:27;;;;;;;11.23;3.10;;;;;;;;;;5133047;27;20046;-67
2023/03/23 05:59:53;;;;;;;14.57;3.22;;;;;;;;;;5136058;27;20492;-65
2023/03/23 06:02:20;;;;;;;12.23;2.88;;;;;;;;;;5133534;27;20058;-65
2023/03/23 06:04:48;;;;;;;13.30;3.42;;;;;;;;;;5133540;27;20092;-67
2023/03/23 06:07:15;;;;;;;10.98;3.33;;;;;;;;;;5137823;27;20507;-66
2023/03/23 06:09:41;;;;;;;19.65;3.95;;;;;;;;;;5139819;27;20059;-65
2023/03/23 06:12:09;;;;;;;15.00;3.50;;;;;;;;;;5118296;27;20077;-65
2023/03/23 06:14:35;;;;;;;15.65;4.28;;;;;;;;;;5134015;27;20078;-65
2023/03/23 06:17:01;;;;;;;14.00;3.80;;;;;;;;;;5135052;27;20039;-65
2023/03/23 06:19:27;;;;;;;16.48;4.20;;;;;;;;;;5132976;27;20042;-66
2023/03/23 06:21:55;;;;;;;12.30;2.88;;;;;;;;;;5134515;27;20039;-64
2023/03/23 06:24:21;;;;;;;16.73;4.47;;;;;;;;;;5115073;27;20049;-65
2023/03/23 06:26:48;;;;;;;10.77;3.47;;;;;;;;;;5116525;27;20055;-65
2023/03/23 06:29:14;;;;;;;19.17;3.60;;;;;;;;;;5136914;27;20156;-65
2023/03/23 06:31:43;;;;;;;18.13;3.28;;;;;;;;;;5133864;27;20079;-66
2023/03/23 06:34:09;;;;;;;10.15;2.75;;;;;;;;;;5139274;27;20435;-65
2023/03/23 06:36:36;;;;;;;15.98;3.60;;;;;;;;;;5132764;27;20055;-65
2023/03/23 06:39:04;;;;;;;13.48;3.28;;;;;;;;;;5135816;27;20039;-65
2023/03/23 06:41:30;;;;;;;9.52;2.67;;;;;;;;;;5135499;27;20125;-65
2023/03/23 06:43:56;;;;;;;5.18;1.90;;;;;;;;;;5135141;27;20039;-65
2023/03/23 06:46:22;;;;;;;13.20;2.60;;;;;;;;;;5133026;27;20081;-65
2023/03/23 06:48:49;;;;;;;12.70;2.30;;;;;;;;;;5128806;27;20043;-66
2023/03/23 06:51:16;;;;;;;10.25;2.45;;;;;;;;;;5132650;27;20091;-68
2023/03/23 06:53:42;;;;;;;10.85;2.08;;;;;;;;;;5137192;27;20119;-65
2023/03/23 06:56:08;;;;;;;7.28;1.98;;;;;;;;;;5135458;27;20081;-65
2023/03/23 06:58:35;;;;;;;6.57;1.75;;;;;;;;;;5132242;27;20039;-65
2023/03/23 07:01:01;;;;;;;9.10;2.47;;;;;;;;;;5134046;27;20054;-65
2023/03/23 07:03:27;;;;;;;8.23;2.42;;;;;;;;;;5133188;27;20451;-66
2023/03/23 07:05:54;;;;;;;5.78;1.70;;;;;;;;;;5133490;27;20437;-65
2023/03/23 07:08:20;;;;;;;10.65;2.33;;;;;;;;;;5134770;27;20057;-65
2023/03/23 07:10:46;;;;;;;9.95;2.17;;;;;;;;;;5134524;27;20086;-65
2023/03/23 07:13:12;;;;;;;9.73;2.38;;;;;;;;;;5114303;27;20462;-65
2023/03/23 07:15:40;;;;;;;6.55;2.10;;;;;;;;;;5134511;27;20654;-65
2023/03/23 07:18:06;;;;;;;14.02;3.58;;;;;;;;;;5135204;27;20814;-65
2023/03/23 07:20:32;;;;;;;15.98;2.80;;;;;;;;;;5133277;27;20047;-65
2023/03/23 07:22:58;;;;;;;9.30;2.85;;;;;;;;;;5132803;27;20466;-65
2023/03/23 07:25:24;;;;;;;18.27;4.32;;;;;;;;;;5134979;27;20456;-65
2023/03/23 07:27:50;;;;;;;16.42;3.83;;;;;;;;;;5138130;27;20035;-65
2023/03/23 07:30:16;;;;;;;9.20;3.40;;;;;;;;;;5131797;27;20411;-65
2023/03/23 07:32:42;;;;;;;12.98;3.42;;;;;;;;;;5133446;27;20057;-65
2023/03/23 07:35:09;;;;;;;12.75;3.35;;;;;;;;;;5133571;27;20050;-65
2023/03/23 07:37:36;;;;;;;11.30;3.33;;;;;;;;;;5130710;27;20074;-65
2023/03/23 07:40:14;;;;;;;6.78;2.90;;;;;;;;;;5131935;27;20049;-66
2023/03/23 07:42:44;;;;;;;16.55;3.80;;;;;;;;;;5137559;27;20046;-65
2023/03/23 07:45:11;;;;;;;14.20;4.30;;;;;;;;;;5132864;27;20481;-65
2023/03/23 07:47:37;;;;;;;21.90;5.45;;;;;;;;;;5132242;27;20079;-66
2023/03/23 07:50:04;;;;;;;19.08;4.43;;;;;;;;;;5135318;27;20125;-65
2023/03/23 07:52:30;;;;;;;19.98;4.40;;;;;;;;;;5134942;27;20092;-65
2023/03/23 07:54:57;;;;;;;18.98;5.03;;;;;;;;;;5131389;27;20043;-65
2023/03/23 07:57:23;;;;;;;25.08;6.18;;;;;;;;;;5134023;27;20092;-65
2023/03/23 07:59:49;;;;;;;18.63;4.82;;;;;;;;;;5135836;27;20050;-64
2023/03/23 08:02:15;;;;;;;17.42;4.82;;;;;;;;;;5134863;27;20046;-65
2023/03/23 08:04:42;;;;;;;18.63;4.68;;;;;;;;;;5135735;27;20042;-65
2023/03/23 08:07:12;;;;;;;20.75;5.13;;;;;;;;;;5132036;27;20745;-65
2023/03/23 08:09:38;;;;;;;13.77;3.78;;;;;;;;;;5134262;27;20126;-65
2023/03/23 08:12:04;;;;;;;20.10;4.63;;;;;;;;;;5133340;27;20126;-66
2023/03/23 08:14:30;;;;;;;17.75;4.75;;;;;;;;;;5115052;27;20120;-65
2023/03/23 08:16:57;;;;;;;25.67;5.15;;;;;;;;;;5137027;27;20038;-65
2023/03/23 08:19:23;;;;;;;18.65;4.20;;;;;;;;;;5133483;27;20081;-66
2023/03/23 08:21:49;;;;;;;17.52;3.90;;;;;;;;;;5132749;27;20039;-65
2023/03/23 08:24:15;;;;;;;16.05;4.95;;;;;;;;;;5135207;27;20035;-65
2023/03/23 08:26:42;;;;;;;20.10;5.45;;;;;;;;;;5133872;27;20080;-65
2023/03/23 08:29:08;;;;;;;16.10;4.40;;;;;;;;;;5130736;27;20539;-65
2023/03/23 08:31:35;;;;;;;17.42;4.75;;;;;;;;;;5110535;27;20420;-66
2023/03/23 08:34:07;;;;;;;23.50;5.75;;;;;;;;;;5125910;27;20042;-65
2023/03/23 08:36:34;;;;;;;22.70;5.40;;;;;;;;;;5107603;27;20047;-64
2023/03/23 08:39:00;;;;;;;23.20;5.63;;;;;;;;;;5136271;27;20039;-65
2023/03/23 08:41:26;;;;;;;22.20;5.10;;;;;;;;;;5118270;27;20503;-65
2023/03/23 08:43:52;;;;;;;15.73;5.13;;;;;;;;;;5142066;27;20039;-64
2023/03/23 08:46:19;;;;;;;20.95;5.35;;;;;;;;;;5134929;27;20069;-65
2023/03/23 08:48:46;;;;;;;16.60;4.80;;;;;;;;;;5136635;27;20046;-64
2023/03/23 08:51:12;;;;;;;18.77;5.32;;;;;;;;;;5138096;27;20043;-64
2023/03/23 08:53:38;;;;;;;21.02;5.30;;;;;;;;;;5139661;27;20047;-64
2023/03/23 08:56:08;;;;;;;17.85;4.35;;;;;;;;;;5136122;27;20039;-65
2023/03/23 08:58:38;;;;;;;21.48;5.03;;;;;;;;;;5127898;27;20039;-64
2023/03/23 09:01:06;;;;;;;22.20;4.68;;;;;;;;;;5129162;27;20117;-64
2023/03/23 09:03:32;;;;;;;18.67;4.85;;;;;;;;;;5131323;27;20055;-64
2023/03/23 09:06:00;;;;;;;17.15;4.75;;;;;;;;;;5132003;27;20092;-59
2023/03/23 09:08:28;;;;;;;25.50;6.45;;;;;;;;;;5128497;27;20047;-60
2023/03/23 09:10:54;;;;;;;22.88;5.10;;;;;;;;;;5136433;27;20050;-60
2023/03/23 09:13:20;;;;;;;27.75;5.63;;;;;;;;;;5131910;27;20038;-63
2023/03/23 09:15:47;;;;;;;23.45;6.18;;;;;;;;;;5149098;27;20074;-65
2023/03/23 09:18:13;;;;;;;20.02;4.70;;;;;;;;;;5152291;27;20046;-64
2023/03/23 09:20:39;;;;;;;24.58;6.78;;;;;;;;;;5150171;27;20608;-65
2023/03/23 09:23:06;;;;;;;18.83;5.18;;;;;;;;;;5151095;27;20038;-64
2023/03/23 09:25:32;;;;;;;26.15;6.00;;;;;;;;;;5140818;27;20431;-65
2023/03/23 09:27:59;;;;;;;21.00;4.90;;;;;;;;;;5139938;27;20407;-64
2023/03/23 09:30:26;;;;;;;26.75;5.90;;;;;;;;;;5137837;27;20122;-65
2023/03/23 09:32:52;;;;;;;17.67;3.95;;;;;;;;;;5144156;27;20074;-64
2023/03/23 09:35:21;;;;;;;25.48;5.95;;;;;;;;;;5137588;27;20093;-64
2023/03/23 09:37:47;;;;;;;21.20;5.05;;;;;;;;;;5141904;27;20121;-65
2023/03/23 09:40:24;;;;;;;28.20;5.97;;;;;;;;;;5145200;27;20053;-67
2023/03/23 09:43:02;;;;;;;23.10;5.88;;;;;;;;;;5139782;27;20047;-63
2023/03/23 09:45:38;;;;;;;23.30;5.35;;;;;;;;;;5150214;27;20046;-64
2023/03/23 09:48:19;;;;;;;22.20;5.22;;;;;;;;;;5135094;27;20401;-64
2023/03/23 09:50:47;;;;;;;20.27;5.55;;;;;;;;;;5134700;27;20063;-64
2023/03/23 09:53:29;;;;;;;17.42;5.00;;;;;;;;;;5141507;27;20058;-64
2023/03/23 09:55:55;;;;;;;18.30;5.13;;;;;;;;;;5137742;27;20763;-64
2023/03/23 09:58:31;;;;;;;17.58;4.68;;;;;;;;;;5141237;27;20043;-65
2023/03/23 10:01:00;;;;;;;22.63;5.93;;;;;;;;;;5138737;27;20515;-65
2023/03/23 10:03:28;;;;;;;20.48;4.82;;;;;;;;;;5138241;27;20089;-65
2023/03/23 10:05:55;;;;;;;20.27;4.75;;;;;;;;;;5133216;27;20490;-65
2023/03/23 10:08:23;;;;;;;18.08;4.65;;;;;;;;;;5126191;27;20063;-65
2023/03/23 10:11:07;;;;;;;22.15;4.80;;;;;;;;;;5126820;27;20054;-65
2023/03/23 10:13:50;;;;;;;25.60;5.68;;;;;;;;;;5125495;27;20057;-65
2023/03/23 10:16:39;;;;;;;17.98;4.35;;;;;;;;;;5127232;27;20771;-64
2023/03/23 10:19:08;;;;;;;26.83;5.78;;;;;;;;;;5126851;27;20035;-64
2023/03/23 10:21:36;;;;;;;15.82;4.05;;;;;;;;;;5126630;27;20047;-64
2023/03/23 10:24:03;;;;;;;18.95;5.18;;;;;;;;;;5126559;27;20039;-64
2023/03/23 10:26:49;;;;;;;13.02;4.22;;;;;;;;;;5124983;27;20135;-64
2023/03/23 10:29:32;;;;;;;12.02;3.78;;;;;;;;;;5123945;27;20084;-65
2023/03/23 10:32:13;;;;;;;14.40;4.70;;;;;;;;;;5124385;27;20054;-64
2023/03/23 10:34:44;;;;;;;14.70;4.28;;;;;;;;;;5124926;27;20111;-64
2023/03/23 10:37:19;;;;;;;22.13;5.22;;;;;;;;;;5123411;27;20066;-65
2023/03/23 10:39:48;;;;;;;22.95;4.85;;;;;;;;;;5125758;27;20095;-64
2023/03/23 10:42:22;;;;;;;17.17;4.63;;;;;;;;;;5125954;27;20046;-64
2023/03/23 10:44:48;;;;;;;19.60;3.95;;;;;;;;;;5126843;27;20126;-64
2023/03/23 10:47:15;;;;;;;18.58;5.13;;;;;;;;;;5126347;27;20079;-67
2023/03/23 10:49:43;;;;;;;20.73;4.95;;;;;;;;;;5125856;27;20676;-64
2023/03/23 10:52:18;;;;;;;17.05;4.30;;;;;;;;;;5126059;27;20042;-64
2023/03/23 10:54:50;;;;;;;18.58;4.60;;;;;;;;;;5126499;27;20043;-64
2023/03/23 10:57:17;;;;;;;;;;;;;;;;;;5126766;27;20123;-64
2023/03/23 10:59:44;;;;;;;17.27;3.97;;;;;;;;;;5126205;27;20395;-64
2023/03/23 11:02:15;;;;;;;13.70;3.67;;;;;;;;;;5125926;27;20151;-65
2023/03/23 11:04:46;;;;;;;16.15;3.88;;;;;;;;;;5125645;27;20545;-65
2023/03/23 11:07:17;;;;;;;11.02;3.67;;;;;;;;;;5125933;27;20050;-65
2023/03/23 11:09:52;;;;;;;11.88;4.53;;;;;;;;;;5125772;27;20304;-65
2023/03/23 11:12:18;;;;;;;15.65;4.82;;;;;;;;;;5124895;27;20039;-65
2023/03/23 11:14:45;;;;;;;13.40;3.88;;;;;;;;;;5125869;27;20055;-64
2023/03/23 11:17:22;;;;;;;13.30;2.92;;;;;;;;;;5128429;27;20425;-64
2023/03/23 11:19:48;;;;;;;10.35;3.03;;;;;;;;;;5132912;27;20045;-64
2023/03/23 11:22:23;;;;;;;11.50;3.50;;;;;;;;;;5130632;27;20536;-65
2023/03/23 11:24:52;;;;;;;14.98;4.03;;;;;;;;;;5125021;27;20573;-64
2023/03/23 11:27:19;;;;;;;10.43;3.40;;;;;;;;;;5137877;27;20062;-64
2023/03/23 11:29:48;;;;;;;9.77;3.13;;;;;;;;;;5146790;27;20046;-64
2023/03/23 11:32:15;;;;;;;10.93;3.55;;;;;;;;;;5145779;27;20078;-64
2023/03/23 11:34:41;;;;;;;11.90;3.53;;;;;;;;;;5145552;27;20123;-65
2023/03/23 11:37:09;;;;;;;10.68;2.85;;;;;;;;;;5145851;27;20094;-64
2023/03/23 11:39:47;;;;;;;13.25;3.65;;;;;;;;;;5145898;27;20485;-64
2023/03/23 11:42:14;;;;;;;12.98;3.83;;;;;;;;;;5146682;27;20039;-65
2023/03/23 11:44:47;;;;;;;11.55;4.10;;;;;;;;;;5146558;27;20125;-65
2023/03/23 11:47:22;;;;;;;14.13;3.58;;;;;;;;;;5144134;27;20537;-65
2023/03/23 11:49:48;;;;;;;19.50;3.90;;;;;;;;;;5135162;27;20408;-65
2023/03/23 11:52:21;;;;;;;18.20;3.75;;;;;;;;;;5140677;27;20600;-65
2023/03/23 11:54:50;;;;;;;12.18;3.50;;;;;;;;;;5145657;27;20043;-64
2023/03/23 11:57:18;;;;;;;13.77;3.58;;;;;;;;;;5145758;27;20050;-64
2023/03/23 11:59:45;;;;;;;10.57;3.50;;;;;;;;;;5137191;27;20047;-64
2023/03/23 12:02:17;;;;;;;10.48;3.50;;;;;;;;;;5131976;27;20069;-64
2023/03/23 12:04:46;;;;;;;7.47;2.88;;;;;;;;;;5129742;27;20783;-65
2023/03/23 12:07:16;;;;;;;7.35;2.50;;;;;;;;;;5133321;27;20139;-65
2023/03/23 12:09:46;;;;;;;10.80;2.53;;;;;;;;;;5129185;27;20063;-64
2023/03/23 12:12:17;;;;;;;14.63;3.00;;;;;;;;;;5141219;27;20043;-65
2023/03/23 12:14:49;;;;;;;9.88;2.42;;;;;;;;;;5113973;27;20116;-65
2023/03/23 12:17:26;;;;;;;9.30;2.83;;;;;;;;;;5129814;27;20035;-65
2023/03/23 12:20:14;;;;;;;11.45;2.78;;;;;;;;;;5129884;27;20062;-68
2023/03/23 12:22:48;;;;;;;9.20;2.72;;;;;;;;;;5130150;27;20047;-64
2023/03/23 12:25:30;;;;;;;11.57;2.33;;;;;;;;;;5110264;27;20046;-65
2023/03/23 12:27:56;;;;;;;11.18;3.28;;;;;;;;;;5134247;27;20069;-64
2023/03/23 12:30:26;;;;;;;12.65;3.90;;;;;;;;;;5130741;27;20047;-64
2023/03/23 12:33:04;;;;;;;11.75;3.45;;;;;;;;;;5139942;27;20062;-68
2023/03/23 12:35:37;;;;;;;7.68;2.63;;;;;;;;;;5129222;27;20608;-64
2023/03/23 12:38:10;;;;;;;13.65;3.33;;;;;;;;;;5134767;27;20039;-65
2023/03/23 12:40:36;;;;;;;12.68;3.03;;;;;;;;;;5127610;27;20070;-65
2023/03/23 12:43:16;;;;;;;13.00;3.65;;;;;;;;;;5139111;27;20139;-65
2023/03/23 12:45:42;;;;;;;10.88;3.30;;;;;;;;;;5138170;27;20043;-65
2023/03/23 12:48:11;;;;;;;11.82;3.63;;;;;;;;;;5136436;27;20114;-65
2023/03/23 12:50:57;;;;;;;12.13;3.10;;;;;;;;;;5138874;27;20083;-65
2023/03/23 12:53:26;;;;;;;9.80;2.95;;;;;;;;;;5085081;27;20055;-65
2023/03/23 12:56:01;;;;;;;11.68;3.08;;;;;;;;;;5134255;27;20564;-65
2023/03/23 12:58:30;;;;;;;11.18;2.63;;;;;;;;;;5139616;27;20125;-65
2023/03/23 13:01:18;;;;;;;6.93;2.85;;;;;;;;;;5127586;27;20497;-66
2023/03/23 13:03:47;;;;;;;9.57;2.88;;;;;;;;;;5128151;27;20398;-65
2023/03/23 13:06:32;;;;;;;14.40;3.50;;;;;;;;;;5143034;27;20042;-64
2023/03/23 13:09:16;;;;;;;12.98;3.10;;;;;;;;;;5141902;27;20059;-64
2023/03/23 13:11:43;;;;;;;6.90;2.80;;;;;;;;;;5131321;27;20051;-64
2023/03/23 13:14:12;;;;;;;14.35;3.67;;;;;;;;;;5145216;27;20038;-64
2023/03/23 13:16:41;;;;;;;13.60;3.22;;;;;;;;;;5147889;27;20046;-64
2023/03/23 13:19:07;;;;;;;13.38;3.22;;;;;;;;;;5125349;27;20696;-64
2023/03/23 13:21:56;;;;;;;11.60;3.17;;;;;;;;;;5146586;27;20132;-64
2023/03/23 13:24:24;;;;;;;11.15;3.17;;;;;;;;;;5140873;27;20051;-65
2023/03/23 13:26:51;;;;;;;10.07;3.42;;;;;;;;;;5139632;27;20446;-64
2023/03/23 13:29:24;;;;;;;6.22;2.58;;;;;;;;;;5143487;27;20089;-64
2023/03/23 13:31:50;;;;;;;11.40;3.05;;;;;;;;;;5137529;27;20047;-64
2023/03/23 13:34:20;;;;;;;7.80;2.80;;;;;;;;;;5146062;27;20046;-64
2023/03/23 13:37:03;;;;;;;14.57;4.05;;;;;;;;;;5142604;27;20446;-65
2023/03/23 13:39:48;;;;;;;13.88;3.53;;;;;;;;;;5147239;27;20055;-65
2023/03/23 13:42:15;;;;;;;10.70;3.17;;;;;;;;;;5141895;27;20039;-65
2023/03/23 13:44:55;;;;;;;14.35;4.07;;;;;;;;;;5148562;27;20042;-64
2023/03/23 13:47:26;;;;;;;10.38;3.00;;;;;;;;;;5142936;27;20191;-64
2023/03/23 13:49:59;;;;;;;12.30;4.10;;;;;;;;;;5147797;27;20047;-64
2023/03/23 13:52:37;;;;;;;18.80;4.40;;;;;;;;;;5141285;27;20047;-65
2023/03/23 13:55:18;;;;;;;12.90;3.83;;;;;;;;;;5145103;27;20759;-64
2023/03/23 13:57:56;;;;;;;10.20;3.13;;;;;;;;;;5135668;27;20081;-65
2023/03/23 14:00:33;;;;;;;13.60;3.85;;;;;;;;;;5134664;27;20486;-65
2023/03/23 14:03:15;;;;;;;17.40;3.53;;;;;;;;;;5140898;27;20085;-65
2023/03/23 14:05:45;;;;;;;13.95;4.13;;;;;;;;;;5129851;27;20490;-64
2023/03/23 14:08:13;;;;;;;12.85;4.13;;;;;;;;;;5133570;27;20051;-65
2023/03/23 14:10:42;;;;;;;11.85;3.78;;;;;;;;;;5136759;27;20096;-65
2023/03/23 14:13:15;;;;;;;10.15;3.63;;;;;;;;;;5141187;27;20096;-64
2023/03/23 14:15:44;;;;;;;12.05;3.45;;;;;;;;;;5145216;27;20030;-65
2023/03/23 14:18:15;;;;;;;11.43;3.13;;;;;;;;;;5130167;27;20047;-64
2023/03/23 14:20:41;;;;;;;12.77;3.75;;;;;;;;;;5133201;27;20047;-65
2023/03/23 14:23:15;;;;;;;8.23;3.08;;;;;;;;;;5138335;27;20043;-64
2023/03/23 14:25:41;;;;;;;15.38;3.22;;;;;;;;;;5144667;27;20099;-64
2023/03/23 14:28:17;;;;;;;11.70;2.90;;;;;;;;;;5144585;27;20370;-64
2023/03/23 14:30:43;;;;;;;12.77;3.17;;;;;;;;;;5146696;27;20039;-65
2023/03/23 14:33:11;;;;;;;8.15;2.88;;;;;;;;;;5134733;27;20150;-65
2023/03/23 14:35:40;;;;;;;14.05;2.85;;;;;;;;;;5154735;27;20112;-65
2023/03/23 14:38:11;;;;;;;11.13;3.05;;;;;;;;;;5155836;27;20042;-65
2023/03/23 14:40:37;;;;;;;7.97;2.88;;;;;;;;;;5155279;27;20130;-64
2023/03/23 14:43:05;;;;;;;10.98;2.72;;;;;;;;;;5148688;27;20557;-65
2023/03/23 14:45:32;;;;;;;9.00;2.92;;;;;;;;;;5154549;27;20099;-65
2023/03/23 14:48:00;;;;;;;11.38;3.15;;;;;;;;;;5148418;27;20064;-65